Terminal Aerodrome Forecast
Issued by NWS North Platte, NE

Home | Current Version | Previous Version | Graphics & Text | Print | Product List | Glossary On
Versions: 1 2 3 4 5 6 7 8 9 10 11 12 13 14 15 16
000
FTUS43 KLBF 260520
TAFVTN
TAF
KVTN 260520Z 2606/2706 12009KT P6SM SKC
     FM261600 16013G19KT P6SM SCT250
     FM270100 13012G18KT P6SM BKN150 PROB30 2702/2706 3SM +TSRA
      OVC030CB=

USA.gov is the U.S. government's official web portal to all federal, state and local government web resources and services.